Rhea — PDEB — position and weather

sailwx.info

Track history (hours):
 
Tides and Currents Weather Stations Pressure Air Temp Water Temp Dewpoint Dewpoint Depression Visibility Wind Speed Wind Dir Waves Ship Positions

Rhea

Last reported at 2018-Feb-20 21:30 UTC. Time now 2018-Feb-21 01:07 UTC.
Position N 15°52' W 061°35'.

Length 48 m; draft 4.2 m.

Type: Sailing vessel. MMSI: 244060297.

Date/timePositionNaut miles runAvg speedWind from/ knotsBaromVisibWave heightAir tempDewpointWater temp
2018-Feb-20 21:30N 15°52' W 061°35'0 0.0
2018-Feb-20 20:58N 15°52' W 061°35'0 0.0
2018-Feb-20 20:29N 15°52' W 061°35'0 0.0
2018-Feb-20 18:55N 15°52' W 061°35'0 0.0
2018-Feb-20 17:53N 15°52' W 061°35'0 0.0
2018-Feb-20 17:30N 15°52' W 061°35'0 0.0
2018-Feb-20 16:54N 15°52' W 061°35'0 0.1
2018-Feb-20 16:28N 15°52' W 061°35'8 4.5
2018-Feb-20 14:47N 15°55' W 061°43'2 6.7
2018-Feb-20 14:28N 15°57' W 061°44'4 7.7
2018-Feb-20 13:53N 16°01' W 061°46'2 6.2
2018-Feb-20 13:29N 16°03' W 061°47'3 7.0
2018-Feb-20 13:00N 16°06' W 061°47'3 6.8
2018-Feb-20 12:29N 16°10' W 061°47'0 0.0
2018-Feb-19 13:48N 16°10' W 061°47'2 7.3
2018-Feb-19 13:30N 16°12' W 061°48'4 7.2
2018-Feb-19 13:01N 16°16' W 061°49'3 5.5
2018-Feb-19 12:29N 16°18' W 061°48'0 0.1
2018-Feb-19 11:59N 16°18' W 061°48'0 0.0
2018-Feb-19 11:29N 16°18' W 061°48'0 0.0
2018-Feb-19 10:59N 16°18' W 061°48'0 0.0
2018-Feb-19 10:29N 16°18' W 061°48'0 0.0
2018-Feb-19 09:56N 16°18' W 061°48'0 0.0
2018-Feb-19 09:26N 16°18' W 061°48'0 0.0
2018-Feb-19 08:59N 16°18' W 061°48'0 0.0
2018-Feb-19 08:20N 16°18' W 061°48'0 0.0
2018-Feb-19 07:59N 16°18' W 061°48'0 0.0
2018-Feb-19 07:26N 16°18' W 061°48'0 0.0
2018-Feb-19 06:59N 16°18' W 061°48'0 0.0
2018-Feb-19 06:29N 16°18' W 061°48'0 0.0
2018-Feb-19 05:56N 16°18' W 061°48'0 0.0
2018-Feb-19 05:26N 16°18' W 061°48'0 0.0
2018-Feb-19 04:59N 16°18' W 061°48'0 0.0
2018-Feb-19 04:29N 16°18' W 061°48'0 0.0
2018-Feb-19 03:56N 16°18' W 061°48'0 0.0
2018-Feb-19 03:29N 16°18' W 061°48'0 0.0
2018-Feb-19 02:50N 16°18' W 061°48'0 0.0
2018-Feb-19 02:29N 16°18' W 061°48'0 0.0
2018-Feb-19 01:59N 16°18' W 061°48'0 0.0
2018-Feb-19 01:23N 16°18' W 061°48'0 0.0
2018-Feb-19 00:59N 16°18' W 061°48'0 0.0
2018-Feb-19 00:26N 16°18' W 061°48'0 0.0
2018-Feb-18 23:59N 16°18' W 061°48'0 0.0
2018-Feb-18 23:29N 16°18' W 061°48'0 0.0
2018-Feb-18 22:56N 16°18' W 061°48'0 0.0
2018-Feb-18 22:29N 16°18' W 061°48'0 0.0
2018-Feb-18 22:00N 16°18' W 061°48'0 0.0
2018-Feb-18 21:30N 16°18' W 061°48'0 0.0
2018-Feb-18 21:01N 16°18' W 061°48'2 4.9
2018-Feb-18 20:31N 16°20' W 061°49'4 8.2
2018-Feb-18 20:00N 16°24' W 061°52'4 7.8
2018-Feb-18 19:31N 16°27' W 061°54'4 8.1
2018-Feb-18 19:01N 16°31' W 061°56'4 7.2
2018-Feb-18 18:30N 16°34' W 061°58'4 7.1
2018-Feb-18 18:00N 16°37' W 061°60'3 6.7
2018-Feb-18 17:29N 16°40' W 062°02'3 6.4
2018-Feb-18 17:00N 16°42' W 062°03'3 6.3
2018-Feb-18 16:31N 16°45' W 062°05'3 6.4
2018-Feb-18 16:01N 16°48' W 062°07'3 7.0
2018-Feb-18 15:31N 16°51' W 062°09'4 7.2
2018-Feb-18 15:00N 16°54' W 062°11'4 7.3
2018-Feb-18 14:31N 16°50' W 062°12'2 0.9
2018-Feb-18 12:39N 16°49' W 062°13'0 0.1
2018-Feb-18 12:24N 16°49' W 062°13'0 0.0
2018-Feb-18 11:57N 16°49' W 062°13'0 0.0
2018-Feb-18 10:54N 16°49' W 062°13'0 0.0
2018-Feb-18 10:24N 16°49' W 062°13'0 0.0
2018-Feb-18 09:15N 16°49' W 062°13'0 0.0
2018-Feb-18 08:21N 16°49' W 062°13'0 0.0
2018-Feb-18 08:00N 16°49' W 062°13'0 0.0
2018-Feb-18 07:27N 16°49' W 062°13'0 0.0
2018-Feb-18 06:51N 16°49' W 062°13'0 0.0
2018-Feb-18 06:27N 16°49' W 062°13'0 0.0
2018-Feb-18 05:57N 16°49' W 062°13'0 0.0
2018-Feb-18 05:18N 16°49' W 062°13'0 0.0
2018-Feb-18 04:57N 16°49' W 062°13'0 0.0
2018-Feb-18 04:30N 16°49' W 062°13'0 0.0
2018-Feb-18 02:24N 16°49' W 062°13'0 0.0
2018-Feb-18 01:51N 16°49' W 062°13'0 0.0
2018-Feb-18 00:45N 16°49' W 062°13'0 0.0
2018-Feb-18 00:21N 16°49' W 062°13'0 0.0
2018-Feb-17 23:54N 16°49' W 062°13'0 0.0
2018-Feb-17 23:21N 16°49' W 062°13'0 0.0
2018-Feb-17 22:54N 16°49' W 062°13'0 0.0
2018-Feb-17 22:24N 16°49' W 062°13'0 0.0
2018-Feb-17 22:00N 16°49' W 062°13'0 0.0
2018-Feb-17 21:30N 16°49' W 062°13'0 0.0
2018-Feb-17 21:00N 16°49' W 062°13'0 0.0
2018-Feb-17 20:27N 16°49' W 062°13'0 0.0
2018-Feb-17 20:00N 16°49' W 062°13'0 0.0
2018-Feb-17 19:00N 16°49' W 062°13'0 0.0
2018-Feb-17 18:30N 16°49' W 062°13'0 0.0
2018-Feb-17 17:54N 16°49' W 062°13'0 0.0
2018-Feb-17 17:27N 16°49' W 062°13'1 3.2
2018-Feb-17 17:01N 16°48' W 062°14'3 6.3
2018-Feb-17 16:30N 16°47' W 062°17'3 6.1
2018-Feb-17 16:00N 16°46' W 062°20'3 5.8
2018-Feb-17 15:30N 16°47' W 062°23'4 7.3
2018-Feb-17 15:00N 16°49' W 062°26'4 7.5
2018-Feb-17 14:29N 16°52' W 062°28'3 6.6
2018-Feb-17 14:00N 16°55' W 062°30'3 6.3
2018-Feb-17 13:30N 16°58' W 062°32'7 6.5
2018-Feb-17 12:21N 17°04' W 062°37'3 6.7
2018-Feb-17 11:58N 17°06' W 062°38'3 6.3
2018-Feb-17 11:28N 17°09' W 062°40'10 0.3
2018-Feb-15 23:22N 17°17' W 062°44'2 4.9
2018-Feb-15 23:00N 17°17' W 062°45'4 7.0
2018-Feb-15 22:28N 17°19' W 062°49'7 6.7
2018-Feb-15 21:28N 17°24' W 062°53'3 5.8
2018-Feb-15 21:00N 17°27' W 062°53'4 7.6
2018-Feb-15 20:30N 17°30' W 062°52'5 8.6
2018-Feb-15 19:58N 17°35' W 062°52'5 8.4
2018-Feb-15 19:20N 17°40' W 062°52'3 7.5
2018-Feb-15 18:58N 17°43' W 062°52'5 7.4
2018-Feb-15 18:18N 17°48' W 062°52'3 6.7
2018-Feb-15 17:50N 17°51' W 062°52'2 5.6
2018-Feb-15 17:25N 17°53' W 062°51'0 0.8
2018-Feb-15 16:53N 17°54' W 062°52'0 0.1
2018-Feb-15 16:25N 17°54' W 062°52'0 0.0
2018-Feb-15 15:40N 17°54' W 062°52'0 0.0
2018-Feb-15 15:25N 17°54' W 062°52'0 0.0
2018-Feb-15 13:58N 17°54' W 062°52'0 0.0
2018-Feb-15 13:25N 17°54' W 062°52'0 0.0
2018-Feb-15 12:43N 17°54' W 062°52'0 0.0
2018-Feb-15 12:28N 17°54' W 062°52'0 0.0
2018-Feb-15 11:41N 17°54' W 062°52'0 0.0
2018-Feb-15 11:25N 17°54' W 062°52'0 0.0
2018-Feb-15 10:58N 17°54' W 062°52'0 0.0
2018-Feb-15 10:28N 17°54' W 062°52'0 0.0
2018-Feb-15 09:58N 17°54' W 062°52'0 0.0
2018-Feb-15 09:19N 17°54' W 062°52'0 0.0
2018-Feb-15 08:58N 17°54' W 062°52'0 0.0
2018-Feb-15 08:19N 17°54' W 062°52'0 0.0
2018-Feb-15 07:46N 17°54' W 062°52'0 0.0
2018-Feb-15 07:19N 17°54' W 062°52'0 0.0
2018-Feb-15 06:53N 17°54' W 062°52'0 0.0
2018-Feb-15 06:22N 17°54' W 062°52'0 0.0
2018-Feb-15 05:52N 17°54' W 062°52'0 0.0
2018-Feb-15 05:22N 17°54' W 062°52'0 0.0
2018-Feb-15 04:49N 17°54' W 062°52'0 0.0
2018-Feb-15 04:26N 17°54' W 062°52'0 0.0
2018-Feb-15 03:55N 17°54' W 062°52'0 0.0
2018-Feb-15 03:22N 17°54' W 062°52'0 0.0
2018-Feb-15 02:55N 17°54' W 062°52'0 0.0
2018-Feb-15 02:25N 17°54' W 062°52'0 0.0
2018-Feb-15 01:40N 17°54' W 062°52'0 0.1
2018-Feb-15 01:28N 17°54' W 062°52'1 1.8
2018-Feb-15 00:59N 17°53' W 062°51'14 8.0
2018-Feb-14 23:16N 17°49' W 062°38'2 8.2
2018-Feb-14 22:59N 17°49' W 062°35'4 8.0
2018-Feb-14 22:31N 17°48' W 062°31'4 7.8
2018-Feb-14 22:00N 17°47' W 062°27'4 8.3
2018-Feb-14 21:31N 17°46' W 062°23'4 8.1
2018-Feb-14 21:01N 17°44' W 062°19'4 7.8
2018-Feb-14 20:31N 17°43' W 062°15'4 7.7
2018-Feb-14 20:00N 17°42' W 062°11'4 7.9
2018-Feb-14 19:30N 17°41' W 062°07'4 7.9
2018-Feb-14 19:00N 17°40' W 062°03'4 7.7
2018-Feb-14 18:31N 17°39' W 061°59'4 7.1
2018-Feb-14 18:01N 17°38' W 061°56'2 4.3
2018-Feb-14 17:31N 17°37' W 061°54'2 4.2
2018-Feb-14 17:01N 17°37' W 061°52'0 0.1
2018-Feb-14 16:30N 17°37' W 061°52'0 0.0
2018-Feb-14 16:00N 17°37' W 061°52'0 0.0
2018-Feb-14 15:30N 17°37' W 061°52'0 0.0
2018-Feb-14 15:00N 17°37' W 061°52'0 0.0
2018-Feb-14 14:30N 17°37' W 061°52'0 0.0
2018-Feb-14 14:00N 17°37' W 061°52'0 0.0
2018-Feb-14 13:30N 17°37' W 061°52'0 0.0
2018-Feb-14 13:00N 17°37' W 061°52'0 0.0
2018-Feb-14 12:30N 17°37' W 061°52'0 0.0
2018-Feb-14 12:00N 17°37' W 061°52'0 0.0
2018-Feb-14 11:30N 17°37' W 061°52'0 0.0
2018-Feb-14 11:00N 17°37' W 061°52'0 0.0
2018-Feb-14 10:30N 17°37' W 061°52'0 0.0
2018-Feb-14 10:00N 17°37' W 061°52'0 0.0
2018-Feb-14 09:30N 17°37' W 061°52'0 0.0
2018-Feb-14 09:00N 17°37' W 061°52'0 0.0
2018-Feb-14 08:30N 17°37' W 061°52'0 0.0
2018-Feb-14 08:00N 17°37' W 061°52'0 0.0
2018-Feb-14 07:30N 17°37' W 061°52'0 0.0
2018-Feb-14 07:00N 17°37' W 061°52'0 0.0
2018-Feb-14 06:30N 17°37' W 061°52'0 0.0
2018-Feb-14 06:00N 17°37' W 061°52'0 0.0
2018-Feb-14 05:30N 17°37' W 061°52'0 0.0
2018-Feb-14 05:00N 17°37' W 061°52'0 0.0
2018-Feb-14 04:30N 17°37' W 061°52'0 0.0
2018-Feb-14 04:00N 17°37' W 061°52'0 0.0
2018-Feb-14 03:30N 17°37' W 061°52'0 0.0
2018-Feb-14 03:00N 17°37' W 061°52'0 0.0
2018-Feb-14 02:30N 17°37' W 061°52'0 0.0
2018-Feb-14 02:00N 17°37' W 061°52'0 0.0
2018-Feb-14 01:27N 17°37' W 061°52'0 0.0
2018-Feb-14 01:00N 17°37' W 061°52'0 0.0
2018-Feb-14 00:30N 17°37' W 061°52'0 0.0
2018-Feb-14 00:00N 17°37' W 061°52'0 0.0
2018-Feb-13 23:30N 17°37' W 061°52'0 0.0
2018-Feb-13 23:00N 17°37' W 061°52'2 4.4
2018-Feb-13 22:30N 17°36' W 061°54'3 5.5
2018-Feb-13 22:00N 17°35' W 061°56'4 8.1
2018-Feb-13 21:30N 17°31' W 061°57'4 7.7
2018-Feb-13 21:00N 17°27' W 061°57'4 7.7
2018-Feb-13 20:30N 17°23' W 061°57'3 6.8
2018-Feb-13 20:00N 17°20' W 061°57'3 6.5
2018-Feb-13 19:31N 17°17' W 061°56'3 6.7
2018-Feb-13 19:00N 17°13' W 061°56'3 6.6
2018-Feb-13 18:30N 17°10' W 061°56'4 7.3
2018-Feb-13 18:00N 17°06' W 061°56'3 6.2
2018-Feb-13 17:30N 17°03' W 061°57'4 7.1
2018-Feb-13 17:00N 17°00' W 061°55'4 7.4
2018-Feb-13 16:30N 16°59' W 061°51'4 8.1
2018-Feb-13 16:01N 16°59' W 061°47'2 4.0
2018-Feb-13 15:28N 17°00' W 061°46'0 0.1
2018-Feb-13 14:58N 17°00' W 061°46'0 0.0
2018-Feb-13 14:28N 17°00' W 061°46'0 0.0
2018-Feb-13 13:58N 17°00' W 061°46'0 0.0
2018-Feb-13 13:28N 17°00' W 061°46'0 0.0
2018-Feb-13 12:58N 17°00' W 061°46'0 0.0
2018-Feb-13 12:28N 17°00' W 061°46'0 0.0
2018-Feb-13 11:58N 17°00' W 061°46'0 0.0
2018-Feb-13 11:28N 17°00' W 061°46'0 0.0
2018-Feb-13 10:58N 17°00' W 061°46'0 0.0
2018-Feb-13 10:28N 17°00' W 061°46'0 0.0
2018-Feb-13 09:58N 17°00' W 061°46'0 0.0
2018-Feb-13 09:28N 17°00' W 061°46'0 0.0
2018-Feb-13 08:58N 17°00' W 061°46'0 0.0
2018-Feb-13 08:28N 17°00' W 061°46'0 0.0
2018-Feb-13 07:58N 17°00' W 061°46'0 0.0
2018-Feb-13 07:28N 17°00' W 061°46'0 0.0
2018-Feb-13 06:58N 17°00' W 061°46'0 0.0
2018-Feb-13 06:28N 17°00' W 061°46'0 0.0
2018-Feb-13 05:58N 17°00' W 061°46'0 0.0
2018-Feb-13 05:28N 17°00' W 061°46'0 0.0
2018-Feb-13 04:58N 17°00' W 061°46'0 0.0
2018-Feb-13 04:28N 17°00' W 061°46'0 0.0
2018-Feb-13 03:58N 17°00' W 061°46'0 0.0
2018-Feb-13 03:28N 17°00' W 061°46'0 0.0
2018-Feb-13 02:58N 17°00' W 061°46'0 0.0
2018-Feb-13 02:28N 17°00' W 061°46'0 0.0
2018-Feb-13 01:58N 17°00' W 061°46'0 0.0
2018-Feb-13 01:28N 17°00' W 061°46'0 0.0
2018-Feb-13 00:58N 17°00' W 061°46'0 0.0
2018-Feb-13 00:28N 17°00' W 061°46'0 0.0
2018-Feb-12 23:58N 17°00' W 061°46'0 0.0
2018-Feb-12 23:28N 17°00' W 061°46'0 0.0
2018-Feb-12 22:58N 17°00' W 061°46'0 0.0
2018-Feb-12 22:28N 17°00' W 061°46'0 0.0
2018-Feb-12 21:58N 17°00' W 061°46'0 0.0
2018-Feb-12 21:28N 17°00' W 061°46'0 0.0
2018-Feb-12 20:58N 17°00' W 061°46'0 0.0
2018-Feb-12 20:28N 17°00' W 061°46'0 0.0
2018-Feb-12 19:58N 17°00' W 061°46'0 0.0
2018-Feb-12 19:28N 17°00' W 061°46'0 0.0
2018-Feb-12 18:58N 17°00' W 061°46'0 0.0
2018-Feb-12 18:28N 17°00' W 061°46'0 0.0
2018-Feb-12 17:58N 17°00' W 061°46'0 0.0
2018-Feb-12 17:28N 17°00' W 061°46'0 0.0
2018-Feb-12 16:58N 17°00' W 061°46'0 0.0
2018-Feb-12 16:28N 17°00' W 061°46'0 0.0
2018-Feb-12 15:58N 17°00' W 061°46'0 0.0
2018-Feb-12 15:16N 17°00' W 061°46'0 0.0
2018-Feb-12 14:58N 17°00' W 061°46'0 0.0
2018-Feb-12 14:28N 17°00' W 061°46'0 0.0
2018-Feb-12 13:58N 17°00' W 061°46'0 0.0
2018-Feb-12 13:28N 17°00' W 061°46'0 0.0
2018-Feb-12 12:58N 17°00' W 061°46'0 0.0
2018-Feb-12 12:28N 17°00' W 061°46'0 0.0
2018-Feb-12 11:58N 17°00' W 061°46'0 0.0
2018-Feb-12 11:28N 17°00' W 061°46'0 0.0
2018-Feb-12 10:58N 17°00' W 061°46'0 0.0
2018-Feb-12 10:28N 17°00' W 061°46'0 0.0
2018-Feb-12 09:58N 17°00' W 061°46'0 0.0
2018-Feb-12 09:28N 17°00' W 061°46'0 0.0
2018-Feb-12 08:58N 17°00' W 061°46'0 0.0
2018-Feb-12 08:28N 17°00' W 061°46'0 0.0
2018-Feb-12 07:58N 17°00' W 061°46'0 0.0
2018-Feb-12 07:28N 17°00' W 061°46'0 0.0
2018-Feb-12 06:58N 17°00' W 061°46'0 0.0
2018-Feb-12 06:28N 17°00' W 061°46'0 0.0
2018-Feb-12 05:58N 17°00' W 061°46'0 0.0
2018-Feb-12 05:28N 17°00' W 061°46'0 0.0
2018-Feb-12 04:58N 17°00' W 061°46'0 0.0
2018-Feb-12 04:28N 17°00' W 061°46'0 0.0
2018-Feb-12 03:58N 17°00' W 061°46'0 0.0
2018-Feb-12 03:28N 17°00' W 061°46'0 0.0
2018-Feb-12 02:58N 17°00' W 061°46'0 0.0
2018-Feb-12 02:28N 17°00' W 061°46'0 0.0
2018-Feb-12 01:58N 17°00' W 061°46'0 0.0
2018-Feb-12 01:28N 17°00' W 061°46'0 0.0
2018-Feb-12 00:58N 17°00' W 061°46'0 0.0
2018-Feb-12 00:28N 17°00' W 061°46'0 0.0
2018-Feb-11 23:58N 17°00' W 061°46'0 0.0
2018-Feb-11 23:28N 17°00' W 061°46'0 0.0
2018-Feb-11 22:58N 17°00' W 061°46'0 0.0
2018-Feb-11 22:28N 17°00' W 061°46'0 0.0
2018-Feb-11 21:58N 17°00' W 061°46'0 0.0
2018-Feb-11 21:28N 17°00' W 061°46'0 0.0
2018-Feb-11 20:58N 17°00' W 061°46'0 0.0
2018-Feb-11 20:28N 17°00' W 061°46'0 0.0
2018-Feb-11 19:58N 17°00' W 061°46'0 0.0
2018-Feb-11 19:28N 17°00' W 061°46'0 0.0
2018-Feb-11 18:58N 17°00' W 061°46'0 0.0
2018-Feb-11 18:28N 17°00' W 061°46'0 0.0
2018-Feb-11 17:58N 17°00' W 061°46'0 0.1
2018-Feb-11 17:30N 17°00' W 061°46'1 1.1
2018-Feb-11 17:00N 16°60' W 061°46'3 5.6
2018-Feb-11 16:30N 16°57' W 061°47'4 7.1
2018-Feb-11 16:00N 16°54' W 061°48'4 7.7
2018-Feb-11 15:30N 16°50' W 061°48'4 8.1
2018-Feb-11 15:00N 16°46' W 061°48'3 6.8
2018-Feb-11 14:30N 16°42' W 061°49'4 7.4
2018-Feb-11 14:00N 16°39' W 061°49'4 7.7
2018-Feb-11 13:30N 16°35' W 061°49'4 7.6
2018-Feb-11 13:00N 16°31' W 061°49'4 7.9
2018-Feb-11 12:31N 16°27' W 061°49'4 7.9
2018-Feb-11 12:00N 16°23' W 061°49'4 7.6
2018-Feb-11 11:30N 16°19' W 061°50'4 7.5
2018-Feb-11 11:00N 16°16' W 061°49'3 6.8
2018-Feb-11 10:30N 16°12' W 061°49'3 4.8
2018-Feb-11 09:57N 16°10' W 061°47'  
Track history (hours):
 
Tides and Currents Weather Stations Pressure Air Temp Water Temp Dewpoint Dewpoint Depression Visibility Wind Speed Wind Dir Waves Ship Positions

Rhea

Last reported at 2018-Feb-20 21:30 UTC. Time now 2018-Feb-21 01:07 UTC.
Position N 15°52' W 061°35'.

Length 48 m; draft 4.2 m.

Type: Sailing vessel. MMSI: 244060297.

Date/timePositionNaut miles runAvg speedWind from/ knotsBaromVisibWave heightAir tempDewpointWater temp
2018-Feb-20 21:30N 15°52' W 061°35'0 0.0
2018-Feb-20 20:58N 15°52' W 061°35'0 0.0
2018-Feb-20 20:29N 15°52' W 061°35'0 0.0
2018-Feb-20 18:55N 15°52' W 061°35'0 0.0
2018-Feb-20 17:53N 15°52' W 061°35'0 0.0
2018-Feb-20 17:30N 15°52' W 061°35'0 0.0
2018-Feb-20 16:54N 15°52' W 061°35'0 0.1
2018-Feb-20 16:28N 15°52' W 061°35'8 4.5
2018-Feb-20 14:47N 15°55' W 061°43'2 6.7
2018-Feb-20 14:28N 15°57' W 061°44'4 7.7
2018-Feb-20 13:53N 16°01' W 061°46'2 6.2
2018-Feb-20 13:29N 16°03' W 061°47'3 7.0
2018-Feb-20 13:00N 16°06' W 061°47'3 6.8
2018-Feb-20 12:29N 16°10' W 061°47'0 0.0
2018-Feb-19 13:48N 16°10' W 061°47'2 7.3
2018-Feb-19 13:30N 16°12' W 061°48'4 7.2
2018-Feb-19 13:01N 16°16' W 061°49'3 5.5
2018-Feb-19 12:29N 16°18' W 061°48'0 0.1
2018-Feb-19 11:59N 16°18' W 061°48'0 0.0
2018-Feb-19 11:29N 16°18' W 061°48'0 0.0
2018-Feb-19 10:59N 16°18' W 061°48'0 0.0
2018-Feb-19 10:29N 16°18' W 061°48'0 0.0
2018-Feb-19 09:56N 16°18' W 061°48'0 0.0
2018-Feb-19 09:26N 16°18' W 061°48'0 0.0
2018-Feb-19 08:59N 16°18' W 061°48'0 0.0
2018-Feb-19 08:20N 16°18' W 061°48'0 0.0
2018-Feb-19 07:59N 16°18' W 061°48'0 0.0
2018-Feb-19 07:26N 16°18' W 061°48'0 0.0
2018-Feb-19 06:59N 16°18' W 061°48'0 0.0
2018-Feb-19 06:29N 16°18' W 061°48'0 0.0
2018-Feb-19 05:56N 16°18' W 061°48'0 0.0
2018-Feb-19 05:26N 16°18' W 061°48'0 0.0
2018-Feb-19 04:59N 16°18' W 061°48'0 0.0
2018-Feb-19 04:29N 16°18' W 061°48'0 0.0
2018-Feb-19 03:56N 16°18' W 061°48'0 0.0
2018-Feb-19 03:29N 16°18' W 061°48'0 0.0
2018-Feb-19 02:50N 16°18' W 061°48'0 0.0
2018-Feb-19 02:29N 16°18' W 061°48'0 0.0
2018-Feb-19 01:59N 16°18' W 061°48'0 0.0
2018-Feb-19 01:23N 16°18' W 061°48'0 0.0
2018-Feb-19 00:59N 16°18' W 061°48'0 0.0
2018-Feb-19 00:26N 16°18' W 061°48'0 0.0
2018-Feb-18 23:59N 16°18' W 061°48'0 0.0
2018-Feb-18 23:29N 16°18' W 061°48'0 0.0
2018-Feb-18 22:56N 16°18' W 061°48'0 0.0
2018-Feb-18 22:29N 16°18' W 061°48'0 0.0
2018-Feb-18 22:00N 16°18' W 061°48'0 0.0
2018-Feb-18 21:30N 16°18' W 061°48'0 0.0
2018-Feb-18 21:01N 16°18' W 061°48'2 4.9
2018-Feb-18 20:31N 16°20' W 061°49'4 8.2
2018-Feb-18 20:00N 16°24' W 061°52'4 7.8
2018-Feb-18 19:31N 16°27' W 061°54'4 8.1
2018-Feb-18 19:01N 16°31' W 061°56'4 7.2
2018-Feb-18 18:30N 16°34' W 061°58'4 7.1
2018-Feb-18 18:00N 16°37' W 061°60'3 6.7
2018-Feb-18 17:29N 16°40' W 062°02'3 6.4
2018-Feb-18 17:00N 16°42' W 062°03'3 6.3
2018-Feb-18 16:31N 16°45' W 062°05'3 6.4
2018-Feb-18 16:01N 16°48' W 062°07'3 7.0
2018-Feb-18 15:31N 16°51' W 062°09'4 7.2
2018-Feb-18 15:00N 16°54' W 062°11'4 7.3
2018-Feb-18 14:31N 16°50' W 062°12'2 0.9
2018-Feb-18 12:39N 16°49' W 062°13'0 0.1
2018-Feb-18 12:24N 16°49' W 062°13'0 0.0
2018-Feb-18 11:57N 16°49' W 062°13'0 0.0
2018-Feb-18 10:54N 16°49' W 062°13'0 0.0
2018-Feb-18 10:24N 16°49' W 062°13'0 0.0
2018-Feb-18 09:15N 16°49' W 062°13'0 0.0
2018-Feb-18 08:21N 16°49' W 062°13'0 0.0
2018-Feb-18 08:00N 16°49' W 062°13'0 0.0
2018-Feb-18 07:27N 16°49' W 062°13'0 0.0
2018-Feb-18 06:51N 16°49' W 062°13'0 0.0
2018-Feb-18 06:27N 16°49' W 062°13'0 0.0
2018-Feb-18 05:57N 16°49' W 062°13'0 0.0
2018-Feb-18 05:18N 16°49' W 062°13'0 0.0
2018-Feb-18 04:57N 16°49' W 062°13'0 0.0
2018-Feb-18 04:30N 16°49' W 062°13'0 0.0
2018-Feb-18 02:24N 16°49' W 062°13'0 0.0
2018-Feb-18 01:51N 16°49' W 062°13'0 0.0
2018-Feb-18 00:45N 16°49' W 062°13'0 0.0
2018-Feb-18 00:21N 16°49' W 062°13'0 0.0
2018-Feb-17 23:54N 16°49' W 062°13'0 0.0
2018-Feb-17 23:21N 16°49' W 062°13'0 0.0
2018-Feb-17 22:54N 16°49' W 062°13'0 0.0
2018-Feb-17 22:24N 16°49' W 062°13'0 0.0
2018-Feb-17 22:00N 16°49' W 062°13'0 0.0
2018-Feb-17 21:30N 16°49' W 062°13'0 0.0
2018-Feb-17 21:00N 16°49' W 062°13'0 0.0
2018-Feb-17 20:27N 16°49' W 062°13'0 0.0
2018-Feb-17 20:00N 16°49' W 062°13'0 0.0
2018-Feb-17 19:00N 16°49' W 062°13'0 0.0
2018-Feb-17 18:30N 16°49' W 062°13'0 0.0
2018-Feb-17 17:54N 16°49' W 062°13'0 0.0
2018-Feb-17 17:27N 16°49' W 062°13'1 3.2
2018-Feb-17 17:01N 16°48' W 062°14'3 6.3
2018-Feb-17 16:30N 16°47' W 062°17'3 6.1
2018-Feb-17 16:00N 16°46' W 062°20'3 5.8
2018-Feb-17 15:30N 16°47' W 062°23'4 7.3
2018-Feb-17 15:00N 16°49' W 062°26'4 7.5
2018-Feb-17 14:29N 16°52' W 062°28'3 6.6
2018-Feb-17 14:00N 16°55' W 062°30'3 6.3
2018-Feb-17 13:30N 16°58' W 062°32'7 6.5
2018-Feb-17 12:21N 17°04' W 062°37'3 6.7
2018-Feb-17 11:58N 17°06' W 062°38'3 6.3
2018-Feb-17 11:28N 17°09' W 062°40'10 0.3
2018-Feb-15 23:22N 17°17' W 062°44'2 4.9
2018-Feb-15 23:00N 17°17' W 062°45'4 7.0
2018-Feb-15 22:28N 17°19' W 062°49'7 6.7
2018-Feb-15 21:28N 17°24' W 062°53'3 5.8
2018-Feb-15 21:00N 17°27' W 062°53'4 7.6
2018-Feb-15 20:30N 17°30' W 062°52'5 8.6
2018-Feb-15 19:58N 17°35' W 062°52'5 8.4
2018-Feb-15 19:20N 17°40' W 062°52'3 7.5
2018-Feb-15 18:58N 17°43' W 062°52'5 7.4
2018-Feb-15 18:18N 17°48' W 062°52'3 6.7
2018-Feb-15 17:50N 17°51' W 062°52'2 5.6
2018-Feb-15 17:25N 17°53' W 062°51'0 0.8
2018-Feb-15 16:53N 17°54' W 062°52'0 0.1
2018-Feb-15 16:25N 17°54' W 062°52'0 0.0
2018-Feb-15 15:40N 17°54' W 062°52'0 0.0
2018-Feb-15 15:25N 17°54' W 062°52'0 0.0
2018-Feb-15 13:58N 17°54' W 062°52'0 0.0
2018-Feb-15 13:25N 17°54' W 062°52'0 0.0
2018-Feb-15 12:43N 17°54' W 062°52'0 0.0
2018-Feb-15 12:28N 17°54' W 062°52'0 0.0
2018-Feb-15 11:41N 17°54' W 062°52'0 0.0
2018-Feb-15 11:25N 17°54' W 062°52'0 0.0
2018-Feb-15 10:58N 17°54' W 062°52'0 0.0
2018-Feb-15 10:28N 17°54' W 062°52'0 0.0
2018-Feb-15 09:58N 17°54' W 062°52'0 0.0
2018-Feb-15 09:19N 17°54' W 062°52'0 0.0
2018-Feb-15 08:58N 17°54' W 062°52'0 0.0
2018-Feb-15 08:19N 17°54' W 062°52'0 0.0
2018-Feb-15 07:46N 17°54' W 062°52'0 0.0
2018-Feb-15 07:19N 17°54' W 062°52'0 0.0
2018-Feb-15 06:53N 17°54' W 062°52'0 0.0
2018-Feb-15 06:22N 17°54' W 062°52'0 0.0
2018-Feb-15 05:52N 17°54' W 062°52'0 0.0
2018-Feb-15 05:22N 17°54' W 062°52'0 0.0
2018-Feb-15 04:49N 17°54' W 062°52'0 0.0
2018-Feb-15 04:26N 17°54' W 062°52'0 0.0
2018-Feb-15 03:55N 17°54' W 062°52'0 0.0
2018-Feb-15 03:22N 17°54' W 062°52'0 0.0
2018-Feb-15 02:55N 17°54' W 062°52'0 0.0
2018-Feb-15 02:25N 17°54' W 062°52'0 0.0
2018-Feb-15 01:40N 17°54' W 062°52'0 0.1
2018-Feb-15 01:28N 17°54' W 062°52'1 1.8
2018-Feb-15 00:59N 17°53' W 062°51'14 8.0
2018-Feb-14 23:16N 17°49' W 062°38'2 8.2
2018-Feb-14 22:59N 17°49' W 062°35'4 8.0
2018-Feb-14 22:31N 17°48' W 062°31'4 7.8
2018-Feb-14 22:00N 17°47' W 062°27'4 8.3
2018-Feb-14 21:31N 17°46' W 062°23'4 8.1
2018-Feb-14 21:01N 17°44' W 062°19'4 7.8
2018-Feb-14 20:31N 17°43' W 062°15'4 7.7
2018-Feb-14 20:00N 17°42' W 062°11'4 7.9
2018-Feb-14 19:30N 17°41' W 062°07'4 7.9
2018-Feb-14 19:00N 17°40' W 062°03'4 7.7
2018-Feb-14 18:31N 17°39' W 061°59'4 7.1
2018-Feb-14 18:01N 17°38' W 061°56'2 4.3
2018-Feb-14 17:31N 17°37' W 061°54'2 4.2
2018-Feb-14 17:01N 17°37' W 061°52'0 0.1
2018-Feb-14 16:30N 17°37' W 061°52'0 0.0
2018-Feb-14 16:00N 17°37' W 061°52'0 0.0
2018-Feb-14 15:30N 17°37' W 061°52'0 0.0
2018-Feb-14 15:00N 17°37' W 061°52'0 0.0
2018-Feb-14 14:30N 17°37' W 061°52'0 0.0
2018-Feb-14 14:00N 17°37' W 061°52'0 0.0
2018-Feb-14 13:30N 17°37' W 061°52'0 0.0
2018-Feb-14 13:00N 17°37' W 061°52'0 0.0
2018-Feb-14 12:30N 17°37' W 061°52'0 0.0
2018-Feb-14 12:00N 17°37' W 061°52'0 0.0
2018-Feb-14 11:30N 17°37' W 061°52'0 0.0
2018-Feb-14 11:00N 17°37' W 061°52'0 0.0
2018-Feb-14 10:30N 17°37' W 061°52'0 0.0
2018-Feb-14 10:00N 17°37' W 061°52'0 0.0
2018-Feb-14 09:30N 17°37' W 061°52'0 0.0
2018-Feb-14 09:00N 17°37' W 061°52'0 0.0
2018-Feb-14 08:30N 17°37' W 061°52'0 0.0
2018-Feb-14 08:00N 17°37' W 061°52'0 0.0
2018-Feb-14 07:30N 17°37' W 061°52'0 0.0
2018-Feb-14 07:00N 17°37' W 061°52'0 0.0
2018-Feb-14 06:30N 17°37' W 061°52'0 0.0
2018-Feb-14 06:00N 17°37' W 061°52'0 0.0
2018-Feb-14 05:30N 17°37' W 061°52'0 0.0
2018-Feb-14 05:00N 17°37' W 061°52'0 0.0
2018-Feb-14 04:30N 17°37' W 061°52'0 0.0
2018-Feb-14 04:00N 17°37' W 061°52'0 0.0
2018-Feb-14 03:30N 17°37' W 061°52'0 0.0
2018-Feb-14 03:00N 17°37' W 061°52'0 0.0
2018-Feb-14 02:30N 17°37' W 061°52'0 0.0
2018-Feb-14 02:00N 17°37' W 061°52'0 0.0
2018-Feb-14 01:27N 17°37' W 061°52'0 0.0
2018-Feb-14 01:00N 17°37' W 061°52'0 0.0
2018-Feb-14 00:30N 17°37' W 061°52'0 0.0
2018-Feb-14 00:00N 17°37' W 061°52'0 0.0
2018-Feb-13 23:30N 17°37' W 061°52'0 0.0
2018-Feb-13 23:00N 17°37' W 061°52'2 4.4
2018-Feb-13 22:30N 17°36' W 061°54'3 5.5
2018-Feb-13 22:00N 17°35' W 061°56'4 8.1
2018-Feb-13 21:30N 17°31' W 061°57'4 7.7
2018-Feb-13 21:00N 17°27' W 061°57'4 7.7
2018-Feb-13 20:30N 17°23' W 061°57'3 6.8
2018-Feb-13 20:00N 17°20' W 061°57'3 6.5
2018-Feb-13 19:31N 17°17' W 061°56'3 6.7
2018-Feb-13 19:00N 17°13' W 061°56'3 6.6
2018-Feb-13 18:30N 17°10' W 061°56'4 7.3
2018-Feb-13 18:00N 17°06' W 061°56'3 6.2
2018-Feb-13 17:30N 17°03' W 061°57'4 7.1
2018-Feb-13 17:00N 17°00' W 061°55'4 7.4
2018-Feb-13 16:30N 16°59' W 061°51'4 8.1
2018-Feb-13 16:01N 16°59' W 061°47'2 4.0
2018-Feb-13 15:28N 17°00' W 061°46'0 0.1
2018-Feb-13 14:58N 17°00' W 061°46'0 0.0
2018-Feb-13 14:28N 17°00' W 061°46'0 0.0
2018-Feb-13 13:58N 17°00' W 061°46'0 0.0
2018-Feb-13 13:28N 17°00' W 061°46'0 0.0
2018-Feb-13 12:58N 17°00' W 061°46'0 0.0
2018-Feb-13 12:28N 17°00' W 061°46'0 0.0
2018-Feb-13 11:58N 17°00' W 061°46'0 0.0
2018-Feb-13 11:28N 17°00' W 061°46'0 0.0
2018-Feb-13 10:58N 17°00' W 061°46'0 0.0
2018-Feb-13 10:28N 17°00' W 061°46'0 0.0
2018-Feb-13 09:58N 17°00' W 061°46'0 0.0
2018-Feb-13 09:28N 17°00' W 061°46'0 0.0
2018-Feb-13 08:58N 17°00' W 061°46'0 0.0
2018-Feb-13 08:28N 17°00' W 061°46'0 0.0
2018-Feb-13 07:58N 17°00' W 061°46'0 0.0
2018-Feb-13 07:28N 17°00' W 061°46'0 0.0
2018-Feb-13 06:58N 17°00' W 061°46'0 0.0
2018-Feb-13 06:28N 17°00' W 061°46'0 0.0
2018-Feb-13 05:58N 17°00' W 061°46'0 0.0
2018-Feb-13 05:28N 17°00' W 061°46'0 0.0
2018-Feb-13 04:58N 17°00' W 061°46'0 0.0
2018-Feb-13 04:28N 17°00' W 061°46'0 0.0
2018-Feb-13 03:58N 17°00' W 061°46'0 0.0
2018-Feb-13 03:28N 17°00' W 061°46'0 0.0
2018-Feb-13 02:58N 17°00' W 061°46'0 0.0
2018-Feb-13 02:28N 17°00' W 061°46'0 0.0
2018-Feb-13 01:58N 17°00' W 061°46'0 0.0
2018-Feb-13 01:28N 17°00' W 061°46'0 0.0
2018-Feb-13 00:58N 17°00' W 061°46'0 0.0
2018-Feb-13 00:28N 17°00' W 061°46'0 0.0
2018-Feb-12 23:58N 17°00' W 061°46'0 0.0
2018-Feb-12 23:28N 17°00' W 061°46'0 0.0
2018-Feb-12 22:58N 17°00' W 061°46'0 0.0
2018-Feb-12 22:28N 17°00' W 061°46'0 0.0
2018-Feb-12 21:58N 17°00' W 061°46'0 0.0
2018-Feb-12 21:28N 17°00' W 061°46'0 0.0
2018-Feb-12 20:58N 17°00' W 061°46'0 0.0
2018-Feb-12 20:28N 17°00' W 061°46'0 0.0
2018-Feb-12 19:58N 17°00' W 061°46'0 0.0
2018-Feb-12 19:28N 17°00' W 061°46'0 0.0
2018-Feb-12 18:58N 17°00' W 061°46'0 0.0
2018-Feb-12 18:28N 17°00' W 061°46'0 0.0
2018-Feb-12 17:58N 17°00' W 061°46'0 0.0
2018-Feb-12 17:28N 17°00' W 061°46'0 0.0
2018-Feb-12 16:58N 17°00' W 061°46'0 0.0
2018-Feb-12 16:28N 17°00' W 061°46'0 0.0
2018-Feb-12 15:58N 17°00' W 061°46'0 0.0
2018-Feb-12 15:16N 17°00' W 061°46'0 0.0
2018-Feb-12 14:58N 17°00' W 061°46'0 0.0
2018-Feb-12 14:28N 17°00' W 061°46'0 0.0
2018-Feb-12 13:58N 17°00' W 061°46'0 0.0
2018-Feb-12 13:28N 17°00' W 061°46'0 0.0
2018-Feb-12 12:58N 17°00' W 061°46'0 0.0
2018-Feb-12 12:28N 17°00' W 061°46'0 0.0
2018-Feb-12 11:58N 17°00' W 061°46'0 0.0
2018-Feb-12 11:28N 17°00' W 061°46'0 0.0
2018-Feb-12 10:58N 17°00' W 061°46'0 0.0
2018-Feb-12 10:28N 17°00' W 061°46'0 0.0
2018-Feb-12 09:58N 17°00' W 061°46'0 0.0
2018-Feb-12 09:28N 17°00' W 061°46'0 0.0
2018-Feb-12 08:58N 17°00' W 061°46'0 0.0
2018-Feb-12 08:28N 17°00' W 061°46'0 0.0
2018-Feb-12 07:58N 17°00' W 061°46'0 0.0
2018-Feb-12 07:28N 17°00' W 061°46'0 0.0
2018-Feb-12 06:58N 17°00' W 061°46'0 0.0
2018-Feb-12 06:28N 17°00' W 061°46'0 0.0
2018-Feb-12 05:58N 17°00' W 061°46'0 0.0
2018-Feb-12 05:28N 17°00' W 061°46'0 0.0
2018-Feb-12 04:58N 17°00' W 061°46'0 0.0
2018-Feb-12 04:28N 17°00' W 061°46'0 0.0
2018-Feb-12 03:58N 17°00' W 061°46'0 0.0
2018-Feb-12 03:28N 17°00' W 061°46'0 0.0
2018-Feb-12 02:58N 17°00' W 061°46'0 0.0
2018-Feb-12 02:28N 17°00' W 061°46'0 0.0
2018-Feb-12 01:58N 17°00' W 061°46'0 0.0
2018-Feb-12 01:28N 17°00' W 061°46'0 0.0
2018-Feb-12 00:58N 17°00' W 061°46'0 0.0
2018-Feb-12 00:28N 17°00' W 061°46'0 0.0
2018-Feb-11 23:58N 17°00' W 061°46'0 0.0
2018-Feb-11 23:28N 17°00' W 061°46'0 0.0
2018-Feb-11 22:58N 17°00' W 061°46'0 0.0
2018-Feb-11 22:28N 17°00' W 061°46'0 0.0
2018-Feb-11 21:58N 17°00' W 061°46'0 0.0
2018-Feb-11 21:28N 17°00' W 061°46'0 0.0
2018-Feb-11 20:58N 17°00' W 061°46'0 0.0
2018-Feb-11 20:28N 17°00' W 061°46'0 0.0
2018-Feb-11 19:58N 17°00' W 061°46'0 0.0
2018-Feb-11 19:28N 17°00' W 061°46'0 0.0
2018-Feb-11 18:58N 17°00' W 061°46'0 0.0
2018-Feb-11 18:28N 17°00' W 061°46'0 0.0
2018-Feb-11 17:58N 17°00' W 061°46'0 0.1
2018-Feb-11 17:30N 17°00' W 061°46'1 1.1
2018-Feb-11 17:00N 16°60' W 061°46'3 5.6
2018-Feb-11 16:30N 16°57' W 061°47'4 7.1
2018-Feb-11 16:00N 16°54' W 061°48'4 7.7
2018-Feb-11 15:30N 16°50' W 061°48'4 8.1
2018-Feb-11 15:00N 16°46' W 061°48'3 6.8
2018-Feb-11 14:30N 16°42' W 061°49'4 7.4
2018-Feb-11 14:00N 16°39' W 061°49'4 7.7
2018-Feb-11 13:30N 16°35' W 061°49'4 7.6
2018-Feb-11 13:00N 16°31' W 061°49'4 7.9
2018-Feb-11 12:31N 16°27' W 061°49'4 7.9
2018-Feb-11 12:00N 16°23' W 061°49'4 7.6
2018-Feb-11 11:30N 16°19' W 061°50'4 7.5
2018-Feb-11 11:00N 16°16' W 061°49'3 6.8
2018-Feb-11 10:30N 16°12' W 061°49'3 4.8
2018-Feb-11 09:57N 16°10' W 061°47'  

Dump ship's entire track history